Time;durP1;ratioP1;P1;durP2;ratioP2;P2;SDS_P1;SDS_P2;PMS_P1;PMS_P2;Temp;Humidity;BMP_temperature;BMP_pressure;BME280_temperature;BME280_humidity;BME280_pressure;Samples;Min_cycle;Max_cycle;Signal;HPM_P1;HPM_P2
2022/04/21 00:01:27;;;;;;;3.33;3.10;;;9.70;99.90;;;;;;4953886;28;20611;-60
2022/04/21 00:03:56;;;;;;;3.40;3.10;;;9.70;99.90;;;;;;4952011;28;20236;-61
2022/04/21 00:06:24;;;;;;;4.30;3.90;;;9.60;99.90;;;;;;4951166;28;20286;-61
2022/04/21 00:08:52;;;;;;;3.90;3.60;;;9.70;99.90;;;;;;4944255;28;20270;-61
2022/04/21 00:11:20;;;;;;;3.28;3.05;;;9.70;99.90;;;;;;4945891;28;20211;-61
2022/04/21 00:13:48;;;;;;;7.43;3.90;;;9.60;99.90;;;;;;4944662;28;20207;-60
2022/04/21 00:16:16;;;;;;;4.00;3.60;;;9.60;99.90;;;;;;4957796;28;20207;-60
2022/04/21 00:18:46;;;;;;;4.35;3.40;;;9.50;99.90;;;;;;4944959;28;20203;-61
2022/04/21 00:21:15;;;;;;;6.40;4.20;;;9.60;99.90;;;;;;4945338;28;20203;-60
2022/04/21 00:23:42;;;;;;;4.15;3.63;;;9.50;99.90;;;;;;4950612;28;20614;-61
2022/04/21 00:26:12;;;;;;;3.67;3.38;;;9.50;99.90;;;;;;4950768;28;20626;-60
2022/04/21 00:28:40;;;;;;;7.43;4.25;;;9.50;99.90;;;;;;4950821;28;20657;-61
2022/04/21 00:31:07;;;;;;;4.20;3.30;;;9.50;99.90;;;;;;5122817;22;20259;-64
2022/04/21 00:33:35;;;;;;;3.88;3.47;;;9.40;99.90;;;;;;5050118;28;20597;-63
2022/04/21 00:36:03;;;;;;;4.97;3.55;;;9.40;99.90;;;;;;5050769;28;20291;-63
2022/04/21 00:38:32;;;;;;;7.05;4.50;;;9.40;99.90;;;;;;5051334;28;20668;-63
2022/04/21 00:41:00;;;;;;;5.82;3.85;;;9.40;99.90;;;;;;5051110;28;20281;-64
2022/04/21 00:43:30;;;;;;;5.90;4.10;;;9.40;99.90;;;;;;5050383;28;20205;-64
2022/04/21 00:45:57;;;;;;;4.32;3.92;;;9.40;99.90;;;;;;5046640;28;20231;-63
2022/04/21 00:48:28;;;;;;;5.53;4.78;;;9.30;99.90;;;;;;5050902;28;20234;-63
2022/04/21 00:50:57;;;;;;;4.97;3.78;;;9.30;99.90;;;;;;5050997;28;20277;-63
2022/04/21 00:53:25;;;;;;;4.25;3.85;;;9.30;99.90;;;;;;5046778;28;20644;-63
2022/04/21 00:55:55;;;;;;;4.57;3.53;;;9.30;99.90;;;;;;5050553;28;20204;-63
2022/04/21 00:58:23;;;;;;;4.00;3.70;;;9.30;99.90;;;;;;5050880;28;20640;-63
2022/04/21 01:00:51;;;;;;;4.70;4.30;;;9.40;99.90;;;;;;5049699;28;20254;-63
2022/04/21 01:03:19;;;;;;;3.72;3.42;;;9.30;99.90;;;;;;5041326;28;20193;-63
2022/04/21 01:05:49;;;;;;;3.90;3.60;;;9.40;99.90;;;;;;5050665;28;20204;-62
2022/04/21 01:08:17;;;;;;;4.93;3.25;;;9.40;99.90;;;;;;5050825;28;20254;-63
2022/04/21 01:10:47;;;;;;;4.57;4.18;;;9.50;99.90;;;;;;5050858;28;20251;-64
2022/04/21 01:13:16;;;;;;;3.35;3.05;;;9.40;99.90;;;;;;5050210;28;20199;-60
2022/04/21 01:15:44;;;;;;;3.70;3.40;;;9.30;99.90;;;;;;5050308;28;20220;-61
2022/04/21 01:18:12;;;;;;;3.30;3.10;;;9.30;99.90;;;;;;5048897;28;20256;-60
2022/04/21 01:20:41;;;;;;;3.42;3.13;;;9.20;99.90;;;;;;5054271;28;20228;-63
2022/04/21 01:23:09;;;;;;;4.13;3.75;;;9.30;99.90;;;;;;5054256;28;20239;-62
2022/04/21 01:25:39;;;;;;;4.13;3.35;;;9.20;99.90;;;;;;5054777;28;20236;-62
2022/04/21 01:28:09;;;;;;;5.80;3.85;;;9.20;99.90;;;;;;5054277;28;20199;-61
2022/04/21 01:30:37;;;;;;;3.85;3.05;;;9.20;99.90;;;;;;5054373;28;20281;-61
2022/04/21 01:33:05;;;;;;;3.50;3.20;;;9.20;99.90;;;;;;5052225;28;20261;-61
2022/04/21 01:35:33;;;;;;;4.57;3.63;;;9.20;99.90;;;;;;5050799;28;20200;-62
2022/04/21 01:43:33;;;;;;;6.35;3.92;;;9.20;99.90;;;;;;5053789;28;20200;-62
2022/04/21 01:46:01;;;;;;;3.95;3.67;;;9.30;99.90;;;;;;5054055;28;20224;-63
2022/04/21 01:48:30;;;;;;;7.00;4.50;;;9.40;99.90;;;;;;5048514;28;20243;-64
2022/04/21 01:50:57;;;;;;;4.43;4.13;;;9.40;99.90;;;;;;5048384;28;20603;-64
2022/04/21 01:53:27;;;;;;;4.65;4.20;;;9.30;99.90;;;;;;5042276;28;20236;-63
2022/04/21 01:55:55;;;;;;;5.82;4.43;;;9.30;99.90;;;;;;5045562;28;20746;-64
2022/04/21 01:58:23;;;;;;;4.90;4.15;;;9.40;99.90;;;;;;5047248;28;20696;-62
2022/04/21 02:00:50;;;;;;;4.38;3.55;;;9.30;99.90;;;;;;5042559;28;20303;-62
2022/04/21 02:03:18;;;;;;;3.75;3.33;;;9.40;99.90;;;;;;5043007;28;20279;-62
2022/04/21 02:05:46;;;;;;;3.70;3.40;;;9.40;99.90;;;;;;5046781;28;20195;-62
2022/04/21 02:08:15;;;;;;;4.10;3.80;;;9.50;99.90;;;;;;5053866;28;20250;-62
2022/04/21 02:10:44;;;;;;;3.88;3.58;;;9.60;99.90;;;;;;5053170;28;20255;-62
2022/04/21 02:13:13;;;;;;;3.40;3.10;;;9.70;99.90;;;;;;5053293;28;20224;-62
2022/04/21 02:15:41;;;;;;;7.60;4.35;;;9.90;99.90;;;;;;5053565;28;20208;-63
2022/04/21 02:18:09;;;;;;;3.22;2.92;;;10.00;99.90;;;;;;5053490;28;20227;-63
2022/04/21 02:20:37;;;;;;;4.22;3.60;;;10.00;99.90;;;;;;5053788;28;20224;-62
2022/04/21 02:23:05;;;;;;;5.15;3.60;;;10.00;99.90;;;;;;5053150;28;20212;-63
2022/04/21 02:25:33;;;;;;;3.30;3.08;;;10.00;99.90;;;;;;5053548;28;20254;-63
2022/04/21 02:28:02;;;;;;;3.03;2.83;;;10.00;99.90;;;;;;5052936;28;20231;-63
2022/04/21 02:30:30;;;;;;;3.08;2.88;;;10.10;99.90;;;;;;5052188;28;21156;-62
2022/04/21 02:32:58;;;;;;;3.38;2.90;;;10.10;99.90;;;;;;5049706;28;20276;-63
2022/04/21 02:35:26;;;;;;;4.35;3.10;;;10.10;99.90;;;;;;5053528;28;20303;-63
2022/04/21 02:37:54;;;;;;;2.88;2.60;;;10.10;99.90;;;;;;5053319;28;20220;-63
2022/04/21 02:40:22;;;;;;;2.92;2.72;;;10.10;99.90;;;;;;5053467;28;20232;-63
2022/04/21 02:42:50;;;;;;;4.32;2.80;;;10.10;99.90;;;;;;5052057;28;20658;-63
2022/04/21 02:45:19;;;;;;;3.05;2.85;;;10.00;99.90;;;;;;5053006;28;20295;-62
2022/04/21 02:47:47;;;;;;;3.30;2.78;;;10.00;99.90;;;;;;5053001;28;20204;-63
2022/04/21 02:50:17;;;;;;;4.25;3.55;;;10.10;99.90;;;;;;5053306;28;20273;-63
2022/04/21 02:52:46;;;;;;;2.70;2.50;;;10.20;99.90;;;;;;5052375;28;20638;-63
2022/04/21 02:58:00;;;;;;;2.90;2.70;;;10.20;99.90;;;;;;5052914;28;20688;-62
2022/04/21 03:00:29;;;;;;;2.88;2.67;;;10.10;99.90;;;;;;5052448;28;20224;-63
2022/04/21 03:02:57;;;;;;;2.60;2.40;;;9.80;99.90;;;;;;5045759;28;20262;-63
2022/04/21 03:05:25;;;;;;;3.90;3.13;;;9.90;99.90;;;;;;5052929;28;20204;-63
2022/04/21 03:07:54;;;;;;;4.93;2.65;;;9.90;99.90;;;;;;5052639;28;20558;-61
2022/04/21 03:10:22;;;;;;;2.55;2.35;;;10.00;99.90;;;;;;5046125;28;20231;-62
2022/04/21 03:12:50;;;;;;;2.70;2.35;;;10.10;99.90;;;;;;5045381;28;20599;-62
2022/04/21 03:15:18;;;;;;;4.47;3.25;;;10.20;99.90;;;;;;5046272;28;20254;-62
2022/04/21 03:17:47;;;;;;;3.63;2.65;;;10.30;99.90;;;;;;5045350;28;20200;-62
2022/04/21 03:25:42;;;;;;;3.20;2.90;;;10.30;99.90;;;;;;5052393;28;20616;-62
2022/04/21 03:28:10;;;;;;;2.85;2.65;;;10.40;99.90;;;;;;5052334;28;20216;-62
2022/04/21 03:30:38;;;;;;;2.17;2.05;;;10.40;99.90;;;;;;5051963;28;20227;-61
2022/04/21 03:33:08;;;;;;;3.95;2.80;;;10.40;99.90;;;;;;5049278;28;20576;-62
2022/04/21 03:35:36;;;;;;;2.50;2.30;;;10.50;99.90;;;;;;5047427;28;20208;-62
2022/04/21 03:38:04;;;;;;;2.95;2.58;;;10.50;99.90;;;;;;5052261;28;20532;-62
2022/04/21 03:40:32;;;;;;;2.92;2.58;;;10.40;99.90;;;;;;5052210;28;20219;-61
2022/04/21 03:43:00;;;;;;;2.72;2.42;;;10.40;99.90;;;;;;5051387;28;20204;-61
2022/04/21 03:45:29;;;;;;;2.42;2.17;;;10.40;99.90;;;;;;5052091;28;20242;-61
2022/04/21 03:47:58;;;;;;;2.95;2.72;;;10.30;99.90;;;;;;5051882;28;20310;-62
2022/04/21 03:50:29;;;;;;;3.45;2.72;;;10.30;99.90;;;;;;5052016;28;20230;-62
2022/04/21 03:52:57;;;;;;;3.78;2.42;;;10.30;99.90;;;;;;5050915;28;20661;-62
2022/04/21 03:55:25;;;;;;;2.85;2.65;;;10.20;99.90;;;;;;5052022;28;20303;-62
2022/04/21 03:57:53;;;;;;;2.30;2.20;;;10.10;99.90;;;;;;5051682;28;20200;-61
2022/04/21 04:00:21;;;;;;;5.07;2.38;;;10.00;99.90;;;;;;5047941;28;20261;-62
2022/04/21 04:02:49;;;;;;;6.35;2.80;;;10.00;99.90;;;;;;5045167;28;20288;-62
2022/04/21 04:05:17;;;;;;;3.05;2.75;;;10.10;99.90;;;;;;5051702;28;20321;-62
2022/04/21 04:10:54;;;;;;;3.47;2.67;;;10.10;99.90;;;;;;5023866;28;20254;-62
2022/04/21 04:13:23;;;;;;;3.78;3.40;;;10.00;99.90;;;;;;5051153;28;20203;-62
2022/04/21 04:15:52;;;;;;;3.28;2.80;;;9.90;99.90;;;;;;5051451;28;20207;-61
2022/04/21 04:18:21;;;;;;;5.72;2.58;;;9.90;99.90;;;;;;5051352;28;20638;-62
2022/04/21 04:20:49;;;;;;;2.50;2.30;;;10.00;99.90;;;;;;5050662;28;20230;-64
2022/04/21 04:23:19;;;;;;;3.88;2.80;;;10.10;99.90;;;;;;5050912;28;20250;-63
2022/04/21 04:25:48;;;;;;;4.75;3.00;;;10.20;99.90;;;;;;5050816;28;20298;-64
2022/04/21 04:28:16;;;;;;;2.67;2.40;;;10.20;99.90;;;;;;5051301;28;20287;-64
2022/04/21 04:30:44;;;;;;;2.88;2.05;;;10.30;99.90;;;;;;5045945;28;20256;-63
2022/04/21 04:33:11;;;;;;;3.08;2.63;;;10.30;99.90;;;;;;5049246;28;20283;-61
2022/04/21 04:35:39;;;;;;;2.70;2.40;;;10.40;99.90;;;;;;5050943;28;20196;-63
2022/04/21 04:38:07;;;;;;;2.75;2.55;;;10.40;99.90;;;;;;5047104;28;20212;-62
2022/04/21 04:40:36;;;;;;;2.47;2.28;;;10.30;99.90;;;;;;5042987;28;20743;-63
2022/04/21 04:43:03;;;;;;;2.42;2.22;;;10.30;99.90;;;;;;5044546;28;20191;-63
2022/04/21 04:48:17;;;;;;;2.80;2.60;;;10.20;99.90;;;;;;5050989;28;20307;-63
2022/04/21 04:50:46;;;;;;;3.40;2.63;;;10.20;99.90;;;;;;5050986;28;20258;-63
2022/04/21 04:53:14;;;;;;;3.67;2.40;;;10.20;99.90;;;;;;5049913;28;20240;-62
2022/04/21 04:55:43;;;;;;;2.92;2.72;;;10.20;99.90;;;;;;5050724;28;20736;-63
2022/04/21 04:58:11;;;;;;;3.05;2.72;;;10.30;99.90;;;;;;5050383;28;20232;-62
2022/04/21 05:00:39;;;;;;;4.07;2.20;;;10.40;99.90;;;;;;5049950;28;20932;-63
2022/04/21 05:03:06;;;;;;;5.10;2.15;;;10.40;99.90;;;;;;5050361;28;20208;-63
2022/04/21 05:05:34;;;;;;;2.13;2.03;;;10.50;99.90;;;;;;5050831;28;20663;-62
2022/04/21 05:08:05;;;;;;;2.60;2.40;;;10.50;99.90;;;;;;5050350;28;20246;-62
2022/04/21 05:10:33;;;;;;;4.10;2.63;;;10.60;99.90;;;;;;5047858;28;20394;-62
2022/04/21 05:13:03;;;;;;;2.70;2.50;;;10.60;99.90;;;;;;5049943;28;20238;-62
2022/04/21 05:15:30;;;;;;;2.50;2.30;;;10.60;99.90;;;;;;5044352;28;20698;-63
2022/04/21 05:17:59;;;;;;;2.20;2.05;;;10.70;99.90;;;;;;5049728;28;20204;-63
2022/04/21 05:20:27;;;;;;;2.58;2.35;;;10.70;99.90;;;;;;5044214;28;20289;-63
2022/04/21 05:23:04;;;;;;;6.50;3.38;;;10.80;99.90;;;;;;5036554;28;20227;-62
2022/04/21 05:25:36;;;;;;;3.90;2.55;;;10.60;99.90;;;;;;5038127;28;20664;-63
2022/04/21 05:28:07;;;;;;;3.50;3.08;;;10.60;99.90;;;;;;5042529;28;20200;-62
2022/04/21 05:33:24;;;;;;;3.60;3.30;;;10.30;99.90;;;;;;5043089;28;20200;-62
2022/04/21 05:35:53;;;;;;;5.70;3.53;;;10.20;99.90;;;;;;5043141;28;20188;-63
2022/04/21 05:38:21;;;;;;;3.58;3.28;;;10.10;99.90;;;;;;5043709;28;20262;-62
2022/04/21 05:40:50;;;;;;;4.60;3.50;;;10.00;99.90;;;;;;5044245;28;20395;-62
2022/04/21 05:43:21;;;;;;;4.10;3.70;;;9.90;99.90;;;;;;5038041;28;20258;-61
2022/04/21 05:45:50;;;;;;;3.67;3.20;;;10.00;99.90;;;;;;5045574;28;20731;-62
2022/04/21 05:48:19;;;;;;;3.05;2.85;;;10.10;99.90;;;;;;5041409;28;20192;-62
2022/04/21 05:50:48;;;;;;;3.90;3.50;;;10.10;99.90;;;;;;5039743;28;20653;-62
2022/04/21 05:53:21;;;;;;;3.70;3.40;;;10.20;99.90;;;;;;5032598;28;20292;-62
2022/04/21 05:55:50;;;;;;;7.05;5.07;;;10.20;99.90;;;;;;5039887;28;20222;-62
2022/04/21 05:58:22;;;;;;;5.97;3.90;;;10.20;99.90;;;;;;5040425;28;20229;-62
2022/04/21 06:00:50;;;;;;;5.00;4.15;;;10.00;99.90;;;;;;5042515;28;20230;-62
2022/04/21 06:03:25;;;;;;;8.38;3.88;;;10.00;99.90;;;;;;5040959;28;20205;-61
2022/04/21 06:05:53;;;;;;;4.72;4.32;;;9.90;99.90;;;;;;5047208;28;20733;-62
2022/04/21 06:08:21;;;;;;;4.28;3.90;;;10.00;99.90;;;;;;5048496;28;20287;-63
2022/04/21 06:10:50;;;;;;;4.85;4.38;;;10.10;99.90;;;;;;5052772;28;20216;-63
2022/04/21 06:13:18;;;;;;;4.75;4.35;;;10.20;99.90;;;;;;5052938;28;20223;-63
2022/04/21 06:15:47;;;;;;;5.82;3.85;;;10.20;99.90;;;;;;5053919;28;20204;-62
2022/04/21 06:18:15;;;;;;;4.75;4.13;;;10.20;99.90;;;;;;5053532;28;20577;-63
2022/04/21 06:20:43;;;;;;;5.28;4.20;;;10.30;99.90;;;;;;5053628;28;20228;-63
2022/04/21 06:23:11;;;;;;;4.70;4.13;;;10.40;99.90;;;;;;5052727;28;20241;-64
2022/04/21 06:25:41;;;;;;;5.28;4.10;;;10.50;99.90;;;;;;5042822;28;20192;-63
2022/04/21 06:28:10;;;;;;;4.10;3.70;;;10.50;99.90;;;;;;5040810;28;20249;-64
2022/04/21 06:30:38;;;;;;;5.28;4.50;;;10.70;99.90;;;;;;5076548;22;20258;-61
2022/04/21 06:33:07;;;;;;;8.77;4.68;;;10.70;99.90;;;;;;5109875;28;20245;-64
2022/04/21 06:35:35;;;;;;;6.65;4.25;;;10.60;99.90;;;;;;5113961;28;20197;-63
2022/04/21 06:38:03;;;;;;;5.03;4.57;;;10.60;99.90;;;;;;5113866;28;20201;-65
2022/04/21 06:40:32;;;;;;;5.82;4.43;;;10.80;99.90;;;;;;5113288;28;20255;-64
2022/04/21 06:43:02;;;;;;;8.00;5.32;;;10.90;99.90;;;;;;5113019;28;20198;-63
2022/04/21 06:48:24;;;;;;;4.80;4.40;;;11.10;99.90;;;;;;5113769;28;20209;-63
2022/04/21 06:50:54;;;;;;;4.80;4.30;;;11.10;99.90;;;;;;5113573;28;20664;-64
2022/04/21 06:53:22;;;;;;;7.55;4.60;;;11.10;99.90;;;;;;5112809;28;20198;-64
2022/04/21 06:55:50;;;;;;;8.05;4.50;;;11.20;99.90;;;;;;5113957;28;20240;-64
2022/04/21 06:58:18;;;;;;;5.60;3.80;;;11.20;99.90;;;;;;5113519;28;20663;-63
2022/04/21 07:00:47;;;;;;;5.60;4.80;;;11.20;99.90;;;;;;5113418;28;20309;-64
2022/04/21 07:03:15;;;;;;;5.30;4.35;;;11.20;99.90;;;;;;5112850;28;20200;-63
2022/04/21 07:05:45;;;;;;;4.93;4.35;;;11.20;99.90;;;;;;5113396;28;20681;-64
2022/04/21 07:08:14;;;;;;;6.60;4.43;;;11.20;99.90;;;;;;5111114;28;20240;-63
2022/04/21 07:10:41;;;;;;;4.50;4.10;;;11.30;99.90;;;;;;5111016;28;20275;-63
2022/04/21 07:13:10;;;;;;;5.40;3.65;;;11.30;99.90;;;;;;5112575;28;20240;-64
2022/04/21 07:15:40;;;;;;;5.68;4.43;;;11.50;99.90;;;;;;5113397;28;20301;-63
2022/04/21 07:18:08;;;;;;;3.70;3.40;;;11.70;99.90;;;;;;5112381;28;20198;-63
2022/04/21 07:20:36;;;;;;;5.70;4.18;;;11.80;99.90;;;;;;5112727;28;20217;-64
2022/04/21 07:23:06;;;;;;;4.65;4.10;;;12.00;99.90;;;;;;5112212;28;20255;-64
2022/04/21 07:25:34;;;;;;;5.50;3.95;;;12.10;99.90;;;;;;5113172;28;20258;-64
2022/04/21 07:28:02;;;;;;;4.40;3.70;;;11.90;99.90;;;;;;5113386;28;20202;-64
2022/04/21 07:30:29;;;;;;;5.15;3.85;;;11.80;99.90;;;;;;5112675;28;20232;-64
2022/04/21 07:32:58;;;;;;;3.85;3.30;;;11.90;99.90;;;;;;5111973;28;20685;-66
2022/04/21 07:35:26;;;;;;;6.13;3.95;;;12.10;99.90;;;;;;5112880;28;20214;-64
2022/04/21 07:37:59;;;;;;;5.18;3.55;;;12.20;99.90;;;;;;5111477;28;20251;-63
2022/04/21 07:40:29;;;;;;;4.00;3.40;;;12.20;99.90;;;;;;5103371;28;20570;-64
2022/04/21 07:43:02;;;;;;;5.43;3.53;;;12.10;99.90;;;;;;5112014;28;20259;-63
2022/04/21 07:45:32;;;;;;;4.43;3.40;;;12.00;99.90;;;;;;5112723;28;20202;-64
2022/04/21 07:48:00;;;;;;;3.75;3.45;;;12.00;99.90;;;;;;5112790;28;20693;-63
2022/04/21 07:50:28;;;;;;;5.18;4.07;;;11.90;99.90;;;;;;5112552;28;20220;-64
2022/04/21 07:53:18;;;;;;;3.92;3.63;;;11.80;99.90;;;;;;5111645;28;20658;-64
2022/04/21 07:55:50;;;;;;;5.18;3.85;;;11.90;99.90;;;;;;5106589;28;20236;-64
2022/04/21 07:58:18;;;;;;;3.72;3.38;;;11.80;99.90;;;;;;5112253;28;20205;-63
2022/04/21 08:00:46;;;;;;;5.50;3.85;;;11.70;99.90;;;;;;5112042;28;20256;-64
2022/04/21 08:03:18;;;;;;;6.38;3.25;;;11.90;99.90;;;;;;5111223;28;20221;-66
2022/04/21 08:05:47;;;;;;;4.25;3.85;;;11.80;99.90;;;;;;5112322;28;20546;-64
2022/04/21 08:08:15;;;;;;;3.47;3.17;;;11.80;99.90;;;;;;5112103;28;20255;-63
2022/04/21 08:10:43;;;;;;;4.38;3.97;;;11.80;99.90;;;;;;5109531;28;20221;-62
2022/04/21 08:13:17;;;;;;;4.30;4.00;;;11.90;99.90;;;;;;5111316;28;20255;-65
2022/04/21 08:15:48;;;;;;;3.90;3.25;;;11.90;99.90;;;;;;5112289;28;20258;-63
2022/04/21 08:18:16;;;;;;;4.15;3.75;;;11.90;99.90;;;;;;5112127;28;20576;-63
2022/04/21 08:20:46;;;;;;;7.05;3.88;;;12.00;99.90;;;;;;5111789;28;20312;-64
2022/04/21 08:23:14;;;;;;;5.28;3.67;;;12.20;99.90;;;;;;5111082;28;20201;-63
2022/04/21 08:34:27;;;;;;;4.38;3.72;;;12.30;99.90;;;;;;5105900;28;20261;-65
2022/04/21 08:36:55;;;;;;;3.70;3.35;;;12.50;99.90;;;;;;5111815;28;20247;-64
2022/04/21 08:39:23;;;;;;;3.58;3.10;;;12.60;99.90;;;;;;5106337;28;20278;-64
2022/04/21 08:41:54;;;;;;;5.15;3.00;;;12.60;99.90;;;;;;5111148;28;20304;-64
2022/04/21 08:44:23;;;;;;;3.55;3.25;;;12.60;99.90;;;;;;5111246;28;20202;-64
2022/04/21 08:46:54;;;;;;;4.05;3.65;;;12.70;99.90;;;;;;5111647;28;20206;-63
2022/04/21 08:49:23;;;;;;;3.80;3.13;;;12.60;99.90;;;;;;5111700;28;20236;-63
2022/04/21 08:51:51;;;;;;;4.55;3.60;;;12.70;99.90;;;;;;5111681;28;20316;-65
2022/04/21 08:54:19;;;;;;;5.10;3.17;;;12.70;99.90;;;;;;5110381;28;20220;-65
2022/04/21 08:56:49;;;;;;;3.47;3.17;;;12.80;99.90;;;;;;5111474;28;20828;-64
2022/04/21 08:59:19;;;;;;;4.05;3.65;;;12.80;99.90;;;;;;5111455;28;20201;-63
2022/04/21 09:01:48;;;;;;;3.80;2.90;;;12.90;99.90;;;;;;5111341;28;20226;-63
2022/04/21 09:04:16;;;;;;;5.53;3.83;;;12.80;99.90;;;;;;5110971;28;20223;-63
2022/04/21 09:06:44;;;;;;;4.03;3.72;;;12.90;99.90;;;;;;5111184;28;20198;-63
2022/04/21 09:09:13;;;;;;;5.55;3.65;;;13.00;99.90;;;;;;5108072;28;20626;-64
2022/04/21 09:11:43;;;;;;;4.60;4.00;;;13.40;99.90;;;;;;5111035;28;20706;-64
2022/04/21 09:14:16;;;;;;;4.50;3.58;;;13.60;99.90;;;;;;5110362;28;20689;-64
2022/04/21 09:16:44;;;;;;;4.55;3.60;;;13.90;99.50;;;;;;5111406;28;20276;-64
2022/04/21 09:19:15;;;;;;;3.25;2.95;;;14.30;99.90;;;;;;5110964;28;20212;-64
2022/04/21 09:21:43;;;;;;;4.70;3.53;;;14.50;98.80;;;;;;5111041;28;20249;-64
2022/04/21 09:24:22;;;;;;;4.05;3.15;;;14.60;98.70;;;;;;5110079;28;20258;-61
2022/04/21 09:26:51;;;;;;;5.97;3.47;;;14.70;98.20;;;;;;5111246;28;20240;-62
2022/04/21 09:29:28;;;;;;;4.68;3.33;;;14.80;98.10;;;;;;5111081;28;20290;-62
2022/04/21 09:31:57;;;;;;;3.75;3.20;;;14.90;98.10;;;;;;5110366;28;20264;-63
2022/04/21 09:34:34;;;;;;;5.53;3.50;;;15.40;98.00;;;;;;5110833;28;20572;-63
2022/04/21 09:37:05;;;;;;;4.75;3.45;;;15.80;97.60;;;;;;5111431;28;20232;-62
2022/04/21 09:39:38;;;;;;;3.60;3.30;;;16.10;96.40;;;;;;5100776;28;20252;-63
2022/04/21 09:42:06;;;;;;;5.13;3.28;;;16.50;97.30;;;;;;5114204;28;20282;-63
2022/04/21 09:47:21;;;;;;;6.57;3.55;;;17.40;94.80;;;;;;5115168;28;20233;-63
2022/04/21 09:49:50;;;;;;;5.85;3.85;;;17.20;94.40;;;;;;5114911;28;20236;-63
2022/04/21 09:52:27;;;;;;;3.60;2.85;;;17.30;93.70;;;;;;5114077;28;20706;-63
2022/04/21 09:54:55;;;;;;;3.63;3.10;;;17.10;93.80;;;;;;5114320;28;20208;-65
2022/04/21 09:57:30;;;;;;;3.47;3.25;;;17.60;94.30;;;;;;5114943;28;20250;-63
2022/04/21 09:59:59;;;;;;;3.38;3.10;;;17.70;92.70;;;;;;5114759;28;20197;-63
2022/04/21 10:02:29;;;;;;;4.57;3.67;;;17.40;92.10;;;;;;5113871;28;20701;-63
2022/04/21 10:04:59;;;;;;;3.40;3.10;;;17.30;93.30;;;;;;5114523;28;20720;-63
2022/04/21 10:07:27;;;;;;;4.78;2.33;;;17.40;91.70;;;;;;5114525;28;20231;-63
2022/04/21 10:09:55;;;;;;;2.97;2.75;;;17.10;91.40;;;;;;5111506;28;20221;-63
2022/04/21 10:12:23;;;;;;;2.60;2.40;;;17.10;91.10;;;;;;5113782;28;20218;-63
2022/04/21 10:14:52;;;;;;;3.92;2.75;;;16.80;90.80;;;;;;5114313;28;20233;-63
2022/04/21 10:17:20;;;;;;;2.92;2.67;;;16.70;92.10;;;;;;5114542;28;20198;-64
2022/04/21 10:19:50;;;;;;;3.15;2.95;;;16.60;92.20;;;;;;5114249;28;20217;-63
2022/04/21 10:22:26;;;;;;;3.63;2.45;;;16.60;92.50;;;;;;5113468;28;20229;-63
2022/04/21 10:24:56;;;;;;;6.97;3.72;;;16.80;93.00;;;;;;5113982;28;20241;-63
2022/04/21 10:27:42;;;;;;;2.97;2.70;;;17.00;91.10;;;;;;5114265;28;20202;-62
2022/04/21 10:30:15;;;;;;;2.92;2.72;;;17.40;91.50;;;;;;5107776;28;20243;-63
2022/04/21 10:32:49;;;;;;;4.35;3.03;;;17.70;90.80;;;;;;5107753;28;20698;-63
2022/04/21 10:35:41;;;;;;;2.70;2.50;;;17.90;91.00;;;;;;5114002;28;20222;-62
2022/04/21 10:38:26;;;;;;;3.50;2.25;;;17.90;91.10;;;;;;5114329;28;20250;-61
2022/04/21 10:41:00;;;;;;;3.78;2.92;;;18.40;90.70;;;;;;5111010;28;20639;-63
2022/04/21 10:44:02;;;;;;;2.72;2.53;;;18.70;90.00;;;;;;5089149;28;20205;-63
2022/04/21 10:46:30;;;;;;;3.30;2.60;;;18.50;89.80;;;;;;5112880;28;20202;-63
2022/04/21 10:48:59;;;;;;;3.35;3.05;;;18.60;90.50;;;;;;5113704;28;20279;-64
2022/04/21 10:58:50;;;;;;;6.93;3.58;;;19.30;87.10;;;;;;5114203;28;20537;-64
2022/04/21 11:01:31;;;;;;;2.28;2.05;;;19.60;85.90;;;;;;5113606;28;20221;-64
2022/04/21 11:04:20;;;;;;;2.28;2.10;;;19.50;85.70;;;;;;5112870;28;20237;-65
2022/04/21 11:07:09;;;;;;;2.17;2.00;;;19.90;84.40;;;;;;5113607;28;20266;-64
2022/04/21 11:09:50;;;;;;;5.93;2.30;;;19.80;82.30;;;;;;5112116;28;20267;-64
2022/04/21 11:12:49;;;;;;;2.45;2.25;;;19.50;84.30;;;;;;5106735;28;20225;-63
2022/04/21 11:15:32;;;;;;;3.63;2.40;;;19.20;82.80;;;;;;5113148;28;20202;-65
2022/04/21 11:18:02;;;;;;;4.22;2.30;;;18.60;83.20;;;;;;5113432;28;20201;-64
2022/04/21 11:20:30;;;;;;;2.70;2.50;;;18.80;87.60;;;;;;5113067;28;20198;-64
2022/04/21 11:22:57;;;;;;;2.78;2.40;;;19.20;83.30;;;;;;5112390;28;20330;-63
2022/04/21 11:25:26;;;;;;;5.43;2.03;;;19.10;82.70;;;;;;5112826;28;20240;-64
2022/04/21 11:27:55;;;;;;;2.92;2.00;;;19.40;85.00;;;;;;5113199;28;20197;-64
2022/04/21 11:30:24;;;;;;;3.28;2.33;;;19.40;85.40;;;;;;5112873;28;20290;-64
2022/04/21 11:32:53;;;;;;;3.25;2.38;;;19.40;82.20;;;;;;5071536;28;20564;-64
2022/04/21 11:35:22;;;;;;;2.33;2.13;;;19.70;85.00;;;;;;5072304;28;20635;-63
2022/04/21 11:37:52;;;;;;;2.30;2.10;;;19.80;82.70;;;;;;5072515;28;20203;-64
2022/04/21 11:40:22;;;;;;;4.15;2.60;;;19.80;82.80;;;;;;5072103;28;20191;-64
2022/04/21 11:42:51;;;;;;;4.15;3.13;;;19.80;83.70;;;;;;5071345;28;20215;-65
2022/04/21 11:45:22;;;;;;;2.50;2.30;;;19.60;83.50;;;;;;5071635;28;20200;-64
2022/04/21 11:47:50;;;;;;;3.97;2.78;;;19.50;84.50;;;;;;5072297;28;20551;-64
2022/04/21 11:50:26;;;;;;;6.45;3.80;;;19.60;85.50;;;;;;5072203;28;20249;-64
2022/04/21 11:52:55;;;;;;;4.38;3.25;;;20.00;84.60;;;;;;5071482;28;20207;-64
2022/04/21 11:55:25;;;;;;;3.45;3.05;;;20.40;84.90;;;;;;5071601;28;20233;-64
2022/04/21 11:57:53;;;;;;;3.97;3.50;;;20.20;85.40;;;;;;5071847;28;20639;-64
2022/04/21 12:08:47;;;;;;;3.22;3.03;;;20.80;83.90;;;;;;5071928;28;20199;-64
2022/04/21 12:11:18;;;;;;;3.47;3.28;;;20.60;85.00;;;;;;5059699;28;20266;-64
2022/04/21 12:13:47;;;;;;;2.92;2.72;;;20.20;86.30;;;;;;5068287;28;20199;-63
2022/04/21 12:16:40;;;;;;;4.72;3.00;;;20.30;85.20;;;;;;5065512;28;20199;-64
2022/04/21 12:19:12;;;;;;;3.67;3.38;;;20.40;84.50;;;;;;5071679;28;20199;-64
2022/04/21 12:21:40;;;;;;;4.43;3.00;;;20.30;85.50;;;;;;5071156;28;20746;-64
2022/04/21 12:24:16;;;;;;;3.45;2.92;;;20.60;86.60;;;;;;5070615;28;20258;-63
2022/04/21 12:26:52;;;;;;;4.47;3.78;;;20.60;85.00;;;;;;5071297;28;20610;-63
2022/04/21 12:29:22;;;;;;;3.30;3.10;;;20.30;84.30;;;;;;5071461;28;20563;-63
2022/04/21 12:31:53;;;;;;;3.17;2.85;;;20.20;84.70;;;;;;5069815;22;20631;-63
2022/04/21 12:34:23;;;;;;;3.65;2.80;;;20.20;85.70;;;;;;5002678;28;20197;-61
2022/04/21 12:36:53;;;;;;;2.92;2.72;;;20.20;84.40;;;;;;5008780;28;20737;-62
2022/04/21 12:39:21;;;;;;;3.47;3.17;;;19.90;84.40;;;;;;5008120;28;20201;-63
2022/04/21 12:42:10;;;;;;;5.25;3.60;;;19.70;84.70;;;;;;5062266;28;20309;-63
2022/04/21 12:44:37;;;;;;;3.20;2.90;;;19.70;84.50;;;;;;5111682;28;20305;-63
2022/04/21 12:47:15;;;;;;;3.78;2.85;;;19.50;86.20;;;;;;5112293;28;20249;-63
2022/04/21 12:49:54;;;;;;;4.72;3.35;;;19.70;85.50;;;;;;5111179;28;20725;-62
2022/04/21 12:52:47;;;;;;;2.60;2.40;;;19.80;86.30;;;;;;5104409;28;20234;-63
2022/04/21 12:55:24;;;;;;;2.53;2.33;;;20.30;86.40;;;;;;5093620;28;20685;-63
2022/04/21 12:58:00;;;;;;;3.53;2.20;;;20.50;84.40;;;;;;5111672;28;20304;-63
2022/04/21 13:00:30;;;;;;;5.68;3.03;;;21.00;85.20;;;;;;5111502;28;20233;-63
2022/04/21 13:03:01;;;;;;;3.13;2.33;;;20.80;83.60;;;;;;5110834;28;20275;-63
2022/04/21 13:05:29;;;;;;;2.35;2.10;;;20.70;83.30;;;;;;5111099;28;20225;-63
2022/04/21 13:07:58;;;;;;;3.17;2.42;;;21.20;83.40;;;;;;5104793;28;20210;-63
2022/04/21 13:10:26;;;;;;;2.72;2.47;;;21.30;81.20;;;;;;5106708;28;20210;-62
2022/04/21 13:12:54;;;;;;;2.95;2.13;;;20.80;82.70;;;;;;5103744;28;20249;-63
2022/04/21 13:15:22;;;;;;;2.78;2.58;;;20.80;83.60;;;;;;5103964;28;20285;-63
2022/04/21 13:17:50;;;;;;;5.45;1.85;;;21.10;81.80;;;;;;5104275;28;20608;-63
2022/04/21 13:23:02;;;;;;;2.33;1.80;;;21.60;82.60;;;;;;5105673;28;20741;-63
2022/04/21 13:25:30;;;;;;;4.80;2.40;;;21.60;81.60;;;;;;5110620;28;20245;-62
2022/04/21 13:27:58;;;;;;;2.40;2.20;;;21.10;81.60;;;;;;5110998;28;20628;-63
2022/04/21 13:30:27;;;;;;;2.05;1.85;;;20.70;81.40;;;;;;5111284;28;20255;-63
2022/04/21 13:35:42;;;;;;;2.58;2.38;;;20.70;82.30;;;;;;5110935;28;20230;-62
2022/04/21 13:38:10;;;;;;;3.00;2.63;;;20.60;82.70;;;;;;5111093;28;20281;-63
2022/04/21 13:40:38;;;;;;;3.10;2.17;;;20.40;83.50;;;;;;5110619;28;20229;-64
2022/04/21 13:43:06;;;;;;;3.65;2.60;;;20.50;84.00;;;;;;5108482;28;20271;-63
2022/04/21 13:45:57;;;;;;;2.28;2.08;;;20.60;83.20;;;;;;5110817;28;20206;-63
2022/04/21 13:48:25;;;;;;;3.20;2.90;;;20.70;82.60;;;;;;5110920;28;20682;-63
2022/04/21 13:50:55;;;;;;;3.75;2.33;;;20.70;82.50;;;;;;5111005;28;20289;-63
2022/04/21 13:53:22;;;;;;;2.97;2.78;;;20.30;82.60;;;;;;5110366;28;20221;-63
2022/04/21 13:55:50;;;;;;;3.00;1.90;;;20.10;83.40;;;;;;5110545;28;20198;-63
2022/04/21 13:58:18;;;;;;;3.75;2.40;;;20.30;83.10;;;;;;5110868;28;20198;-63
2022/04/21 14:00:46;;;;;;;2.10;2.00;;;20.90;82.10;;;;;;5110837;28;20243;-63